Engles Mill, PA

6:15 PM EDT on April 29, 2017 (GMT -0400)
The Highlands | | Change Station

Elev 2526 ft 39.72 °N, 79.07 °W | Updated 11 seconds ago

Partly Cloudy
Partly Cloudy
78.5 °F
Feels Like 80 °F
N
8.0
Wind Variable Wind from WNW

Today
High -- | Low -- °F
--% Chance of Precip.
Yesterday
High -- | Low -- °F
Precip. -- in
Pressure 30.08 in
Visibility 10.0 miles
Clouds Scattered Clouds 6000 ft
Heat Index 80 °F
Dew Point 63 °F
Humidity 59%
Rainfall 0.66 in
Snow Depth Not available.
6:19 AM 8:08 PM
Waxing Crescent, 17% visible
METAR KCBE 292202Z AUTO 22006KT 10SM SCT060 28/16 A3008 RMK AO1
Pressure 30.08 in
Visibility 10.0 miles
Clouds Scattered Clouds 6000 ft
Heat Index 80 °F
Dew Point 63 °F
Humidity 59%
Rainfall 0.66 in
Snow Depth Not available.
6:19 AM 8:08 PM
Waxing Crescent, 17% visible
METAR KCBE 292202Z AUTO 22006KT 10SM SCT060 28/16 A3008 RMK AO1

Get Severe Weather Alerts

Thanks for signing up!

Be on the lookout for a verification email in your inbox.

You'll start receiving the daily forecast at 8 AM.

×

10-Day Weather Forecast

Almanac

Astronomy

Apr. 29, 2017 Rise Set
Actual Time
Civil Twilight
Nautical Twilight
Astronomical Twilight
Moon
Length of Visible Light
Length of Day
Tomorrow will be .
, % of the Moon is Illuminated

Today's Extremes

State Highs State Lows

Community

WunderPhotos

WunderBlog® & News

Nearby

Air Quality

  Air Quality AQ Index Pollutant
Not available.

Snow Depth

Station Depth Elevation

Earthquake Activity

City Distance Mag. Time & Date
Minimum magnitude displayed is 2.5.

Coastal Water Temperatures

Place Temperature

Stations

Nearby Weather Stations

Station Location Temp. Windchill Dew Point Humidity Wind Precip. Elev Updated Type
                   

Watches & Warnings

There are currently no watches in effect.